sensor_id;sensor_type;location;lat;lon;timestamp;P1;durP1;ratioP1;P2;durP2;ratioP2
64075;SDS011;50327;51.328;12.324;2023-06-14T00:02:11;7.22;;;2.00;;
64075;SDS011;50327;51.328;12.324;2023-06-14T00:04:36;4.78;;;2.08;;
64075;SDS011;50327;51.328;12.324;2023-06-14T00:07:03;4.70;;;2.05;;
64075;SDS011;50327;51.328;12.324;2023-06-14T00:09:29;7.55;;;2.35;;
64075;SDS011;50327;51.328;12.324;2023-06-14T00:11:55;3.78;;;1.70;;
64075;SDS011;50327;51.328;12.324;2023-06-14T00:14:20;3.33;;;1.88;;
64075;SDS011;50327;51.328;12.324;2023-06-14T00:16:45;8.90;;;2.92;;
64075;SDS011;50327;51.328;12.324;2023-06-14T00:19:11;3.83;;;2.20;;
64075;SDS011;50327;51.328;12.324;2023-06-14T00:21:36;5.57;;;2.10;;
64075;SDS011;50327;51.328;12.324;2023-06-14T00:24:03;7.90;;;1.98;;
64075;SDS011;50327;51.328;12.324;2023-06-14T00:26:29;7.57;;;1.95;;
64075;SDS011;50327;51.328;12.324;2023-06-14T00:28:55;9.88;;;2.10;;
64075;SDS011;50327;51.328;12.324;2023-06-14T00:31:21;8.98;;;2.13;;
64075;SDS011;50327;51.328;12.324;2023-06-14T00:33:47;5.07;;;2.00;;
64075;SDS011;50327;51.328;12.324;2023-06-14T00:36:12;3.58;;;2.00;;
64075;SDS011;50327;51.328;12.324;2023-06-14T00:38:38;5.13;;;2.20;;
64075;SDS011;50327;51.328;12.324;2023-06-14T00:41:03;5.28;;;2.30;;
64075;SDS011;50327;51.328;12.324;2023-06-14T00:43:29;5.38;;;1.95;;
64075;SDS011;50327;51.328;12.324;2023-06-14T00:45:54;3.97;;;2.00;;
64075;SDS011;50327;51.328;12.324;2023-06-14T00:48:20;5.63;;;2.00;;
64075;SDS011;50327;51.328;12.324;2023-06-14T00:50:46;5.90;;;2.45;;
64075;SDS011;50327;51.328;12.324;2023-06-14T00:53:13;9.75;;;2.35;;
64075;SDS011;50327;51.328;12.324;2023-06-14T00:55:42;4.25;;;2.00;;
64075;SDS011;50327;51.328;12.324;2023-06-14T00:58:08;6.03;;;2.00;;
64075;SDS011;50327;51.328;12.324;2023-06-14T01:00:34;8.13;;;2.50;;
64075;SDS011;50327;51.328;12.324;2023-06-14T01:03:00;6.18;;;2.50;;
64075;SDS011;50327;51.328;12.324;2023-06-14T01:05:27;3.78;;;2.05;;
64075;SDS011;50327;51.328;12.324;2023-06-14T01:15:32;13.25;;;2.88;;
64075;SDS011;50327;51.328;12.324;2023-06-14T01:17:59;7.78;;;2.55;;
64075;SDS011;50327;51.328;12.324;2023-06-14T01:20:28;5.55;;;2.38;;
64075;SDS011;50327;51.328;12.324;2023-06-14T01:22:56;8.32;;;2.25;;
64075;SDS011;50327;51.328;12.324;2023-06-14T01:25:22;11.50;;;2.78;;
64075;SDS011;50327;51.328;12.324;2023-06-14T01:27:51;7.65;;;2.20;;
64075;SDS011;50327;51.328;12.324;2023-06-14T01:30:20;4.35;;;2.13;;
64075;SDS011;50327;51.328;12.324;2023-06-14T01:32:47;9.40;;;2.30;;
64075;SDS011;50327;51.328;12.324;2023-06-14T01:35:15;5.90;;;2.65;;
64075;SDS011;50327;51.328;12.324;2023-06-14T01:37:41;6.72;;;2.58;;
64075;SDS011;50327;51.328;12.324;2023-06-14T01:40:09;11.20;;;2.78;;
64075;SDS011;50327;51.328;12.324;2023-06-14T01:42:36;5.65;;;3.10;;
64075;SDS011;50327;51.328;12.324;2023-06-14T01:45:04;4.68;;;2.30;;
64075;SDS011;50327;51.328;12.324;2023-06-14T01:47:30;6.78;;;2.40;;
64075;SDS011;50327;51.328;12.324;2023-06-14T01:49:57;9.75;;;2.55;;
64075;SDS011;50327;51.328;12.324;2023-06-14T01:52:22;11.20;;;2.40;;
64075;SDS011;50327;51.328;12.324;2023-06-14T01:54:49;7.47;;;2.33;;
64075;SDS011;50327;51.328;12.324;2023-06-14T01:57:15;3.95;;;2.30;;
64075;SDS011;50327;51.328;12.324;2023-06-14T01:59:40;4.38;;;2.08;;
64075;SDS011;50327;51.328;12.324;2023-06-14T02:02:06;4.93;;;2.38;;
64075;SDS011;50327;51.328;12.324;2023-06-14T02:04:31;5.82;;;2.45;;
64075;SDS011;50327;51.328;12.324;2023-06-14T02:06:57;7.80;;;2.65;;
64075;SDS011;50327;51.328;12.324;2023-06-14T02:09:22;4.70;;;2.33;;
64075;SDS011;50327;51.328;12.324;2023-06-14T02:11:48;7.75;;;2.70;;
64075;SDS011;50327;51.328;12.324;2023-06-14T02:14:14;6.70;;;2.92;;
64075;SDS011;50327;51.328;12.324;2023-06-14T02:16:39;4.75;;;2.35;;
64075;SDS011;50327;51.328;12.324;2023-06-14T02:19:05;4.95;;;2.35;;
64075;SDS011;50327;51.328;12.324;2023-06-14T02:21:30;4.75;;;2.65;;
64075;SDS011;50327;51.328;12.324;2023-06-14T02:23:56;9.25;;;2.05;;
64075;SDS011;50327;51.328;12.324;2023-06-14T02:26:23;11.82;;;2.92;;
64075;SDS011;50327;51.328;12.324;2023-06-14T02:28:48;6.88;;;2.58;;
64075;SDS011;50327;51.328;12.324;2023-06-14T02:31:14;8.00;;;2.85;;
64075;SDS011;50327;51.328;12.324;2023-06-14T02:33:41;8.82;;;2.50;;
64075;SDS011;50327;51.328;12.324;2023-06-14T02:36:06;7.85;;;2.35;;
64075;SDS011;50327;51.328;12.324;2023-06-14T02:38:32;4.72;;;2.15;;
64075;SDS011;50327;51.328;12.324;2023-06-14T02:40:57;4.72;;;2.17;;
64075;SDS011;50327;51.328;12.324;2023-06-14T02:43:25;9.07;;;2.42;;
64075;SDS011;50327;51.328;12.324;2023-06-14T02:45:50;4.13;;;1.95;;
64075;SDS011;50327;51.328;12.324;2023-06-14T02:48:16;5.50;;;2.30;;
64075;SDS011;50327;51.328;12.324;2023-06-14T02:50:41;4.93;;;2.53;;
64075;SDS011;50327;51.328;12.324;2023-06-14T02:53:07;4.97;;;2.50;;
64075;SDS011;50327;51.328;12.324;2023-06-14T02:55:32;4.07;;;2.25;;
64075;SDS011;50327;51.328;12.324;2023-06-14T02:57:58;4.63;;;2.20;;
64075;SDS011;50327;51.328;12.324;2023-06-14T03:00:23;4.07;;;2.15;;
64075;SDS011;50327;51.328;12.324;2023-06-14T03:02:49;5.20;;;2.50;;
64075;SDS011;50327;51.328;12.324;2023-06-14T03:05:16;4.65;;;2.47;;
64075;SDS011;50327;51.328;12.324;2023-06-14T03:07:46;9.38;;;2.30;;
64075;SDS011;50327;51.328;12.324;2023-06-14T03:10:12;5.63;;;2.22;;
64075;SDS011;50327;51.328;12.324;2023-06-14T03:12:38;10.07;;;2.47;;
64075;SDS011;50327;51.328;12.324;2023-06-14T03:15:04;7.07;;;2.65;;
64075;SDS011;50327;51.328;12.324;2023-06-14T03:17:30;4.32;;;2.40;;
64075;SDS011;50327;51.328;12.324;2023-06-14T03:19:58;4.05;;;1.92;;
64075;SDS011;50327;51.328;12.324;2023-06-14T03:22:24;3.63;;;2.20;;
64075;SDS011;50327;51.328;12.324;2023-06-14T03:24:51;5.20;;;2.45;;
64075;SDS011;50327;51.328;12.324;2023-06-14T03:27:17;4.38;;;2.10;;
64075;SDS011;50327;51.328;12.324;2023-06-14T03:29:43;5.38;;;2.03;;
64075;SDS011;50327;51.328;12.324;2023-06-14T03:32:09;7.43;;;2.42;;
64075;SDS011;50327;51.328;12.324;2023-06-14T03:34:34;4.78;;;2.38;;
64075;SDS011;50327;51.328;12.324;2023-06-14T03:36:59;6.15;;;2.53;;
64075;SDS011;50327;51.328;12.324;2023-06-14T03:39:25;7.50;;;2.63;;
64075;SDS011;50327;51.328;12.324;2023-06-14T03:41:50;8.18;;;2.30;;
64075;SDS011;50327;51.328;12.324;2023-06-14T03:44:16;8.18;;;2.30;;
64075;SDS011;50327;51.328;12.324;2023-06-14T03:46:46;7.25;;;2.30;;
64075;SDS011;50327;51.328;12.324;2023-06-14T03:49:11;4.38;;;2.15;;
64075;SDS011;50327;51.328;12.324;2023-06-14T03:51:37;8.10;;;2.92;;
64075;SDS011;50327;51.328;12.324;2023-06-14T03:54:03;7.30;;;2.53;;
64075;SDS011;50327;51.328;12.324;2023-06-14T03:56:28;3.88;;;2.10;;
64075;SDS011;50327;51.328;12.324;2023-06-14T03:58:53;7.88;;;2.47;;
64075;SDS011;50327;51.328;12.324;2023-06-14T04:01:19;3.60;;;2.20;;
64075;SDS011;50327;51.328;12.324;2023-06-14T04:03:45;4.32;;;2.47;;
64075;SDS011;50327;51.328;12.324;2023-06-14T04:06:10;4.20;;;2.15;;
64075;SDS011;50327;51.328;12.324;2023-06-14T04:08:36;5.68;;;2.50;;
64075;SDS011;50327;51.328;12.324;2023-06-14T04:11:04;4.93;;;2.38;;
64075;SDS011;50327;51.328;12.324;2023-06-14T04:13:30;5.97;;;2.20;;
64075;SDS011;50327;51.328;12.324;2023-06-14T04:15:56;9.15;;;2.75;;
64075;SDS011;50327;51.328;12.324;2023-06-14T04:18:22;6.72;;;2.22;;
64075;SDS011;50327;51.328;12.324;2023-06-14T04:20:48;5.53;;;2.78;;
64075;SDS011;50327;51.328;12.324;2023-06-14T04:23:15;6.60;;;2.80;;
64075;SDS011;50327;51.328;12.324;2023-06-14T04:25:43;6.88;;;2.90;;
64075;SDS011;50327;51.328;12.324;2023-06-14T04:28:10;9.05;;;2.92;;
64075;SDS011;50327;51.328;12.324;2023-06-14T04:30:36;11.10;;;2.88;;
64075;SDS011;50327;51.328;12.324;2023-06-14T04:33:04;5.40;;;2.20;;
64075;SDS011;50327;51.328;12.324;2023-06-14T04:35:33;10.10;;;2.88;;
64075;SDS011;50327;51.328;12.324;2023-06-14T04:38:00;4.70;;;2.53;;
64075;SDS011;50327;51.328;12.324;2023-06-14T04:40:26;4.55;;;2.47;;
64075;SDS011;50327;51.328;12.324;2023-06-14T04:42:52;7.05;;;3.10;;
64075;SDS011;50327;51.328;12.324;2023-06-14T04:45:17;7.47;;;2.72;;
64075;SDS011;50327;51.328;12.324;2023-06-14T04:47:43;8.57;;;3.05;;
64075;SDS011;50327;51.328;12.324;2023-06-14T04:50:09;7.35;;;3.13;;
64075;SDS011;50327;51.328;12.324;2023-06-14T04:52:38;7.80;;;2.90;;
64075;SDS011;50327;51.328;12.324;2023-06-14T04:55:03;6.13;;;3.10;;
64075;SDS011;50327;51.328;12.324;2023-06-14T04:57:29;8.95;;;2.88;;
64075;SDS011;50327;51.328;12.324;2023-06-14T04:59:54;6.03;;;2.92;;
64075;SDS011;50327;51.328;12.324;2023-06-14T05:02:23;9.23;;;3.97;;
64075;SDS011;50327;51.328;12.324;2023-06-14T05:04:49;8.30;;;3.75;;
64075;SDS011;50327;51.328;12.324;2023-06-14T05:07:15;5.90;;;2.80;;
64075;SDS011;50327;51.328;12.324;2023-06-14T05:09:41;5.63;;;2.85;;
64075;SDS011;50327;51.328;12.324;2023-06-14T05:12:06;6.53;;;3.25;;
64075;SDS011;50327;51.328;12.324;2023-06-14T05:14:35;6.97;;;2.70;;
64075;SDS011;50327;51.328;12.324;2023-06-14T05:17:01;16.38;;;5.50;;
64075;SDS011;50327;51.328;12.324;2023-06-14T05:19:27;8.13;;;3.20;;
64075;SDS011;50327;51.328;12.324;2023-06-14T05:21:53;6.90;;;3.58;;
64075;SDS011;50327;51.328;12.324;2023-06-14T05:24:19;10.73;;;3.65;;
64075;SDS011;50327;51.328;12.324;2023-06-14T05:26:47;6.80;;;3.55;;
64075;SDS011;50327;51.328;12.324;2023-06-14T05:29:13;7.70;;;3.67;;
64075;SDS011;50327;51.328;12.324;2023-06-14T05:31:39;12.90;;;3.78;;
64075;SDS011;50327;51.328;12.324;2023-06-14T05:34:04;7.32;;;4.07;;
64075;SDS011;50327;51.328;12.324;2023-06-14T05:36:30;6.32;;;3.72;;
64075;SDS011;50327;51.328;12.324;2023-06-14T05:38:56;6.75;;;3.38;;
64075;SDS011;50327;51.328;12.324;2023-06-14T05:41:25;6.85;;;3.55;;
64075;SDS011;50327;51.328;12.324;2023-06-14T05:43:51;8.43;;;3.58;;
64075;SDS011;50327;51.328;12.324;2023-06-14T05:46:17;7.82;;;4.15;;
64075;SDS011;50327;51.328;12.324;2023-06-14T05:48:47;9.60;;;3.95;;
64075;SDS011;50327;51.328;12.324;2023-06-14T05:51:12;10.73;;;3.83;;
64075;SDS011;50327;51.328;12.324;2023-06-14T05:53:38;11.88;;;4.13;;
64075;SDS011;50327;51.328;12.324;2023-06-14T05:56:03;7.63;;;3.50;;
64075;SDS011;50327;51.328;12.324;2023-06-14T05:58:29;9.40;;;3.60;;
64075;SDS011;50327;51.328;12.324;2023-06-14T06:00:54;7.68;;;3.65;;
64075;SDS011;50327;51.328;12.324;2023-06-14T06:03:19;8.88;;;3.47;;
64075;SDS011;50327;51.328;12.324;2023-06-14T06:05:46;8.50;;;4.07;;
64075;SDS011;50327;51.328;12.324;2023-06-14T06:08:11;12.07;;;3.90;;
64075;SDS011;50327;51.328;12.324;2023-06-14T06:10:36;9.50;;;3.72;;
64075;SDS011;50327;51.328;12.324;2023-06-14T06:13:02;8.18;;;3.70;;
64075;SDS011;50327;51.328;12.324;2023-06-14T06:15:27;9.02;;;3.80;;
64075;SDS011;50327;51.328;12.324;2023-06-14T06:17:53;15.32;;;3.92;;
64075;SDS011;50327;51.328;12.324;2023-06-14T06:20:18;7.40;;;3.95;;
64075;SDS011;50327;51.328;12.324;2023-06-14T06:22:43;8.30;;;3.50;;
64075;SDS011;50327;51.328;12.324;2023-06-14T06:25:09;16.52;;;4.13;;
64075;SDS011;50327;51.328;12.324;2023-06-14T06:27:34;10.27;;;4.10;;
64075;SDS011;50327;51.328;12.324;2023-06-14T06:30:02;8.35;;;3.90;;
64075;SDS011;50327;51.328;12.324;2023-06-14T06:32:28;8.30;;;4.53;;
64075;SDS011;50327;51.328;12.324;2023-06-14T06:34:53;9.43;;;4.00;;
64075;SDS011;50327;51.328;12.324;2023-06-14T06:37:19;10.23;;;3.90;;
64075;SDS011;50327;51.328;12.324;2023-06-14T06:39:44;6.53;;;4.38;;
64075;SDS011;50327;51.328;12.324;2023-06-14T06:42:10;15.48;;;4.22;;
64075;SDS011;50327;51.328;12.324;2023-06-14T06:44:35;11.52;;;4.15;;
64075;SDS011;50327;51.328;12.324;2023-06-14T06:47:01;6.18;;;3.95;;
64075;SDS011;50327;51.328;12.324;2023-06-14T06:49:27;7.47;;;4.22;;
64075;SDS011;50327;51.328;12.324;2023-06-14T06:52:01;7.80;;;4.07;;
64075;SDS011;50327;51.328;12.324;2023-06-14T06:54:28;10.15;;;4.40;;
64075;SDS011;50327;51.328;12.324;2023-06-14T06:56:53;6.50;;;3.55;;
64075;SDS011;50327;51.328;12.324;2023-06-14T06:59:18;8.40;;;3.90;;
64075;SDS011;50327;51.328;12.324;2023-06-14T07:01:44;7.20;;;3.80;;
64075;SDS011;50327;51.328;12.324;2023-06-14T07:04:09;7.50;;;3.88;;
64075;SDS011;50327;51.328;12.324;2023-06-14T07:06:35;8.65;;;3.88;;
64075;SDS011;50327;51.328;12.324;2023-06-14T07:09:01;7.85;;;3.45;;
64075;SDS011;50327;51.328;12.324;2023-06-14T07:11:26;15.52;;;4.32;;
64075;SDS011;50327;51.328;12.324;2023-06-14T07:13:52;14.32;;;4.70;;
64075;SDS011;50327;51.328;12.324;2023-06-14T07:16:17;10.05;;;3.97;;
64075;SDS011;50327;51.328;12.324;2023-06-14T07:18:43;6.70;;;3.28;;
64075;SDS011;50327;51.328;12.324;2023-06-14T07:21:09;7.07;;;3.95;;
64075;SDS011;50327;51.328;12.324;2023-06-14T07:23:34;8.15;;;3.08;;
64075;SDS011;50327;51.328;12.324;2023-06-14T07:26:00;7.43;;;3.75;;
64075;SDS011;50327;51.328;12.324;2023-06-14T07:28:25;17.38;;;4.18;;
64075;SDS011;50327;51.328;12.324;2023-06-14T07:30:51;12.90;;;3.10;;
64075;SDS011;50327;51.328;12.324;2023-06-14T07:33:16;5.53;;;3.20;;
64075;SDS011;50327;51.328;12.324;2023-06-14T07:35:41;7.88;;;3.50;;
64075;SDS011;50327;51.328;12.324;2023-06-14T07:38:07;7.93;;;3.17;;
64075;SDS011;50327;51.328;12.324;2023-06-14T07:40:32;11.00;;;3.45;;
64075;SDS011;50327;51.328;12.324;2023-06-14T07:42:58;11.18;;;4.22;;
64075;SDS011;50327;51.328;12.324;2023-06-14T07:45:23;8.95;;;3.65;;
64075;SDS011;50327;51.328;12.324;2023-06-14T07:47:48;9.35;;;3.25;;
64075;SDS011;50327;51.328;12.324;2023-06-14T07:50:15;4.70;;;2.97;;
64075;SDS011;50327;51.328;12.324;2023-06-14T07:52:40;8.07;;;2.97;;
64075;SDS011;50327;51.328;12.324;2023-06-14T07:55:06;9.88;;;2.60;;
64075;SDS011;50327;51.328;12.324;2023-06-14T07:57:31;18.38;;;4.00;;
64075;SDS011;50327;51.328;12.324;2023-06-14T07:59:57;8.40;;;2.97;;
64075;SDS011;50327;51.328;12.324;2023-06-14T08:02:22;9.02;;;5.85;;
64075;SDS011;50327;51.328;12.324;2023-06-14T08:04:49;9.55;;;3.67;;
64075;SDS011;50327;51.328;12.324;2023-06-14T08:07:14;11.20;;;2.80;;
64075;SDS011;50327;51.328;12.324;2023-06-14T08:09:40;9.98;;;3.42;;
64075;SDS011;50327;51.328;12.324;2023-06-14T08:12:05;8.70;;;3.10;;
64075;SDS011;50327;51.328;12.324;2023-06-14T08:14:38;12.48;;;2.83;;
64075;SDS011;50327;51.328;12.324;2023-06-14T08:17:04;10.60;;;2.95;;
64075;SDS011;50327;51.328;12.324;2023-06-14T08:19:30;11.38;;;3.47;;
64075;SDS011;50327;51.328;12.324;2023-06-14T08:21:56;6.13;;;2.67;;
64075;SDS011;50327;51.328;12.324;2023-06-14T08:24:21;9.15;;;2.85;;
64075;SDS011;50327;51.328;12.324;2023-06-14T08:26:52;7.13;;;3.10;;
64075;SDS011;50327;51.328;12.324;2023-06-14T08:29:17;8.02;;;3.05;;
64075;SDS011;50327;51.328;12.324;2023-06-14T08:31:43;6.07;;;2.90;;
64075;SDS011;50327;51.328;12.324;2023-06-14T08:34:08;12.68;;;3.75;;
64075;SDS011;50327;51.328;12.324;2023-06-14T08:36:34;12.02;;;3.35;;
64075;SDS011;50327;51.328;12.324;2023-06-14T08:39:00;11.75;;;2.83;;
64075;SDS011;50327;51.328;12.324;2023-06-14T08:41:26;8.75;;;2.83;;
64075;SDS011;50327;51.328;12.324;2023-06-14T08:43:54;6.90;;;2.63;;
64075;SDS011;50327;51.328;12.324;2023-06-14T08:46:21;6.97;;;3.20;;
64075;SDS011;50327;51.328;12.324;2023-06-14T08:48:52;7.28;;;3.03;;
64075;SDS011;50327;51.328;12.324;2023-06-14T08:51:22;14.93;;;3.28;;
64075;SDS011;50327;51.328;12.324;2023-06-14T08:53:53;7.65;;;2.90;;
64075;SDS011;50327;51.328;12.324;2023-06-14T08:56:23;7.30;;;3.22;;
64075;SDS011;50327;51.328;12.324;2023-06-14T08:58:51;7.78;;;3.28;;
64075;SDS011;50327;51.328;12.324;2023-06-14T09:01:17;8.52;;;2.90;;
64075;SDS011;50327;51.328;12.324;2023-06-14T09:03:44;6.72;;;2.95;;
64075;SDS011;50327;51.328;12.324;2023-06-14T09:06:09;7.93;;;2.42;;
64075;SDS011;50327;51.328;12.324;2023-06-14T09:08:47;7.60;;;2.70;;
64075;SDS011;50327;51.328;12.324;2023-06-14T09:11:14;8.57;;;2.72;;
64075;SDS011;50327;51.328;12.324;2023-06-14T09:13:40;8.23;;;2.50;;
64075;SDS011;50327;51.328;12.324;2023-06-14T09:16:07;7.68;;;2.58;;
64075;SDS011;50327;51.328;12.324;2023-06-14T09:18:40;6.60;;;3.13;;
64075;SDS011;50327;51.328;12.324;2023-06-14T09:21:08;6.85;;;2.90;;
64075;SDS011;50327;51.328;12.324;2023-06-14T09:23:41;11.82;;;3.38;;
64075;SDS011;50327;51.328;12.324;2023-06-14T09:26:14;10.95;;;2.60;;
64075;SDS011;50327;51.328;12.324;2023-06-14T09:28:46;6.65;;;2.80;;
64075;SDS011;50327;51.328;12.324;2023-06-14T09:31:16;4.20;;;2.35;;
64075;SDS011;50327;51.328;12.324;2023-06-14T09:33:47;6.00;;;2.75;;
64075;SDS011;50327;51.328;12.324;2023-06-14T09:36:18;12.90;;;2.90;;
64075;SDS011;50327;51.328;12.324;2023-06-14T09:38:56;7.22;;;3.00;;
64075;SDS011;50327;51.328;12.324;2023-06-14T09:41:32;7.60;;;2.58;;
64075;SDS011;50327;51.328;12.324;2023-06-14T09:43:59;8.63;;;2.67;;
64075;SDS011;50327;51.328;12.324;2023-06-14T09:46:29;6.05;;;2.97;;
64075;SDS011;50327;51.328;12.324;2023-06-14T09:48:55;4.72;;;2.33;;
64075;SDS011;50327;51.328;12.324;2023-06-14T09:51:24;5.13;;;2.67;;
64075;SDS011;50327;51.328;12.324;2023-06-14T09:53:51;6.82;;;2.70;;
64075;SDS011;50327;51.328;12.324;2023-06-14T09:56:41;6.82;;;2.67;;
64075;SDS011;50327;51.328;12.324;2023-06-14T09:59:06;5.07;;;2.60;;
64075;SDS011;50327;51.328;12.324;2023-06-14T10:01:35;5.07;;;2.35;;
64075;SDS011;50327;51.328;12.324;2023-06-14T10:04:06;6.35;;;3.17;;
64075;SDS011;50327;51.328;12.324;2023-06-14T10:06:35;6.80;;;2.53;;
64075;SDS011;50327;51.328;12.324;2023-06-14T10:09:03;8.40;;;2.42;;
64075;SDS011;50327;51.328;12.324;2023-06-14T10:11:30;6.05;;;2.33;;
64075;SDS011;50327;51.328;12.324;2023-06-14T10:13:56;9.63;;;2.30;;
64075;SDS011;50327;51.328;12.324;2023-06-14T10:19:00;7.60;;;2.38;;
64075;SDS011;50327;51.328;12.324;2023-06-14T10:24:22;10.02;;;2.25;;
64075;SDS011;50327;51.328;12.324;2023-06-14T10:26:56;9.20;;;2.30;;
64075;SDS011;50327;51.328;12.324;2023-06-14T10:29:22;3.60;;;1.98;;
64075;SDS011;50327;51.328;12.324;2023-06-14T10:31:49;4.75;;;2.67;;
64075;SDS011;50327;51.328;12.324;2023-06-14T10:34:25;4.83;;;2.20;;
64075;SDS011;50327;51.328;12.324;2023-06-14T10:37:06;3.80;;;1.98;;
64075;SDS011;50327;51.328;12.324;2023-06-14T10:39:37;7.95;;;2.38;;
64075;SDS011;50327;51.328;12.324;2023-06-14T10:42:07;4.15;;;2.17;;
64075;SDS011;50327;51.328;12.324;2023-06-14T10:44:53;4.85;;;2.10;;
64075;SDS011;50327;51.328;12.324;2023-06-14T10:52:40;4.60;;;2.33;;
64075;SDS011;50327;51.328;12.324;2023-06-14T11:00:07;4.22;;;1.73;;
64075;SDS011;50327;51.328;12.324;2023-06-14T11:05:39;4.75;;;1.90;;
64075;SDS011;50327;51.328;12.324;2023-06-14T11:11:08;3.33;;;1.52;;
64075;SDS011;50327;51.328;12.324;2023-06-14T11:13:36;5.90;;;2.15;;
64075;SDS011;50327;51.328;12.324;2023-06-14T11:16:09;5.50;;;2.15;;
64075;SDS011;50327;51.328;12.324;2023-06-14T11:18:36;8.98;;;2.42;;
64075;SDS011;50327;51.328;12.324;2023-06-14T11:21:02;5.05;;;2.33;;
64075;SDS011;50327;51.328;12.324;2023-06-14T11:23:27;3.90;;;2.00;;
64075;SDS011;50327;51.328;12.324;2023-06-14T11:25:53;4.05;;;2.15;;
64075;SDS011;50327;51.328;12.324;2023-06-14T11:28:18;5.13;;;2.00;;
64075;SDS011;50327;51.328;12.324;2023-06-14T11:30:46;4.07;;;1.87;;
64075;SDS011;50327;51.328;12.324;2023-06-14T11:33:16;4.57;;;1.95;;
64075;SDS011;50327;51.328;12.324;2023-06-14T11:35:43;4.25;;;1.95;;
64075;SDS011;50327;51.328;12.324;2023-06-14T11:38:10;8.57;;;2.22;;
64075;SDS011;50327;51.328;12.324;2023-06-14T11:40:37;12.77;;;2.28;;
64075;SDS011;50327;51.328;12.324;2023-06-14T11:43:03;3.42;;;1.90;;
64075;SDS011;50327;51.328;12.324;2023-06-14T11:45:29;4.63;;;1.92;;
64075;SDS011;50327;51.328;12.324;2023-06-14T11:47:55;6.55;;;2.10;;
64075;SDS011;50327;51.328;12.324;2023-06-14T11:50:21;4.28;;;2.13;;
64075;SDS011;50327;51.328;12.324;2023-06-14T11:52:57;3.88;;;2.00;;
64075;SDS011;50327;51.328;12.324;2023-06-14T11:55:25;7.87;;;1.97;;
64075;SDS011;50327;51.328;12.324;2023-06-14T11:57:50;8.52;;;1.98;;
64075;SDS011;50327;51.328;12.324;2023-06-14T12:00:18;3.30;;;1.95;;
64075;SDS011;50327;51.328;12.324;2023-06-14T12:02:55;4.38;;;2.15;;
64075;SDS011;50327;51.328;12.324;2023-06-14T12:05:22;6.10;;;2.10;;
64075;SDS011;50327;51.328;12.324;2023-06-14T12:07:49;3.95;;;2.10;;
64075;SDS011;50327;51.328;12.324;2023-06-14T12:10:15;5.57;;;2.10;;
64075;SDS011;50327;51.328;12.324;2023-06-14T12:12:41;14.70;;;2.42;;
64075;SDS011;50327;51.328;12.324;2023-06-14T12:15:07;3.90;;;1.95;;
64075;SDS011;50327;51.328;12.324;2023-06-14T12:17:34;5.60;;;2.22;;
64075;SDS011;50327;51.328;12.324;2023-06-14T12:20:11;9.95;;;2.65;;
64075;SDS011;50327;51.328;12.324;2023-06-14T12:22:56;5.18;;;2.05;;
64075;SDS011;50327;51.328;12.324;2023-06-14T12:25:27;10.73;;;2.38;;
64075;SDS011;50327;51.328;12.324;2023-06-14T12:28:14;5.18;;;2.10;;
64075;SDS011;50327;51.328;12.324;2023-06-14T12:30:39;3.80;;;2.10;;
64075;SDS011;50327;51.328;12.324;2023-06-14T12:33:05;3.97;;;2.30;;
64075;SDS011;50327;51.328;12.324;2023-06-14T12:35:32;5.78;;;2.47;;
64075;SDS011;50327;51.328;12.324;2023-06-14T12:37:57;8.40;;;1.80;;
64075;SDS011;50327;51.328;12.324;2023-06-14T12:40:23;2.83;;;1.67;;
64075;SDS011;50327;51.328;12.324;2023-06-14T12:42:48;4.18;;;2.13;;
64075;SDS011;50327;51.328;12.324;2023-06-14T12:45:14;5.97;;;2.30;;
64075;SDS011;50327;51.328;12.324;2023-06-14T12:47:40;4.90;;;2.03;;
64075;SDS011;50327;51.328;12.324;2023-06-14T12:50:05;7.80;;;2.28;;
64075;SDS011;50327;51.328;12.324;2023-06-14T12:52:31;7.50;;;2.30;;
64075;SDS011;50327;51.328;12.324;2023-06-14T12:55:01;5.03;;;2.53;;
64075;SDS011;50327;51.328;12.324;2023-06-14T12:57:26;6.85;;;2.67;;
64075;SDS011;50327;51.328;12.324;2023-06-14T12:59:52;5.35;;;2.42;;
64075;SDS011;50327;51.328;12.324;2023-06-14T13:02:18;4.28;;;2.30;;
64075;SDS011;50327;51.328;12.324;2023-06-14T13:04:45;5.65;;;2.50;;
64075;SDS011;50327;51.328;12.324;2023-06-14T13:07:11;4.88;;;2.38;;
64075;SDS011;50327;51.328;12.324;2023-06-14T13:09:37;8.18;;;2.30;;
64075;SDS011;50327;51.328;12.324;2023-06-14T13:12:02;9.18;;;2.42;;
64075;SDS011;50327;51.328;12.324;2023-06-14T13:14:28;8.60;;;2.35;;
64075;SDS011;50327;51.328;12.324;2023-06-14T13:16:54;6.70;;;2.47;;
64075;SDS011;50327;51.328;12.324;2023-06-14T13:19:20;4.60;;;2.35;;
64075;SDS011;50327;51.328;12.324;2023-06-14T13:21:46;8.88;;;2.67;;
64075;SDS011;50327;51.328;12.324;2023-06-14T13:24:11;11.13;;;2.88;;
64075;SDS011;50327;51.328;12.324;2023-06-14T13:26:37;6.57;;;3.20;;
64075;SDS011;50327;51.328;12.324;2023-06-14T13:29:02;7.68;;;2.70;;
64075;SDS011;50327;51.328;12.324;2023-06-14T13:31:28;7.63;;;2.53;;
64075;SDS011;50327;51.328;12.324;2023-06-14T13:33:54;9.70;;;2.33;;
64075;SDS011;50327;51.328;12.324;2023-06-14T13:36:19;4.85;;;2.50;;
64075;SDS011;50327;51.328;12.324;2023-06-14T13:38:45;5.55;;;2.65;;
64075;SDS011;50327;51.328;12.324;2023-06-14T13:41:10;8.65;;;3.00;;
64075;SDS011;50327;51.328;12.324;2023-06-14T13:43:35;9.40;;;2.42;;
64075;SDS011;50327;51.328;12.324;2023-06-14T13:46:01;4.93;;;2.67;;
64075;SDS011;50327;51.328;12.324;2023-06-14T13:48:26;9.60;;;2.67;;
64075;SDS011;50327;51.328;12.324;2023-06-14T13:50:52;9.32;;;2.60;;
64075;SDS011;50327;51.328;12.324;2023-06-14T13:53:17;12.73;;;3.08;;
64075;SDS011;50327;51.328;12.324;2023-06-14T13:55:43;10.48;;;2.90;;
64075;SDS011;50327;51.328;12.324;2023-06-14T13:58:08;13.38;;;2.50;;
64075;SDS011;50327;51.328;12.324;2023-06-14T14:00:33;5.95;;;2.58;;
64075;SDS011;50327;51.328;12.324;2023-06-14T14:03:00;7.05;;;2.63;;
64075;SDS011;50327;51.328;12.324;2023-06-14T14:05:25;12.20;;;2.83;;
64075;SDS011;50327;51.328;12.324;2023-06-14T14:07:54;9.45;;;2.92;;
64075;SDS011;50327;51.328;12.324;2023-06-14T14:10:19;5.93;;;2.55;;
64075;SDS011;50327;51.328;12.324;2023-06-14T14:12:45;9.30;;;2.80;;
64075;SDS011;50327;51.328;12.324;2023-06-14T14:15:11;6.70;;;2.67;;
64075;SDS011;50327;51.328;12.324;2023-06-14T14:17:39;6.45;;;2.67;;
64075;SDS011;50327;51.328;12.324;2023-06-14T14:20:05;7.53;;;3.28;;
64075;SDS011;50327;51.328;12.324;2023-06-14T14:22:31;15.50;;;2.80;;
64075;SDS011;50327;51.328;12.324;2023-06-14T14:24:57;5.75;;;2.80;;
64075;SDS011;50327;51.328;12.324;2023-06-14T14:27:22;5.45;;;2.33;;
64075;SDS011;50327;51.328;12.324;2023-06-14T14:29:48;5.72;;;2.20;;
64075;SDS011;50327;51.328;12.324;2023-06-14T14:32:13;5.38;;;2.30;;
64075;SDS011;50327;51.328;12.324;2023-06-14T14:34:40;5.00;;;2.33;;
64075;SDS011;50327;51.328;12.324;2023-06-14T14:37:05;5.25;;;2.17;;
64075;SDS011;50327;51.328;12.324;2023-06-14T14:39:31;5.47;;;2.13;;
64075;SDS011;50327;51.328;12.324;2023-06-14T14:41:56;8.13;;;2.50;;
64075;SDS011;50327;51.328;12.324;2023-06-14T14:44:22;4.53;;;2.60;;
64075;SDS011;50327;51.328;12.324;2023-06-14T14:46:47;5.72;;;2.47;;
64075;SDS011;50327;51.328;12.324;2023-06-14T14:49:12;10.77;;;2.90;;
64075;SDS011;50327;51.328;12.324;2023-06-14T14:51:38;17.55;;;7.63;;
64075;SDS011;50327;51.328;12.324;2023-06-14T14:54:04;8.90;;;4.35;;
64075;SDS011;50327;51.328;12.324;2023-06-14T14:56:30;11.20;;;2.58;;
64075;SDS011;50327;51.328;12.324;2023-06-14T14:58:56;7.35;;;2.17;;
64075;SDS011;50327;51.328;12.324;2023-06-14T15:01:21;8.45;;;2.40;;